createdAt,value
2023-04-11T00:00:33.166Z,97.23
2023-04-11T00:03:37.422Z,96.97
2023-04-11T00:06:39.309Z,96.75
2023-04-11T00:09:41.303Z,95.14
2023-04-11T00:12:42.704Z,97.79
2023-04-11T00:15:44.358Z,99.09
2023-04-11T00:18:46.003Z,99.64
2023-04-11T00:21:47.678Z,100.00
2023-04-11T00:24:49.428Z,100.00
2023-04-11T00:27:51.095Z,100.00
2023-04-11T00:30:53.067Z,100.00
2023-04-11T00:33:54.729Z,100.00
2023-04-11T00:36:56.680Z,100.00
2023-04-11T00:39:58.172Z,100.00
2023-04-11T00:42:59.860Z,100.00
2023-04-11T00:46:01.905Z,100.00
2023-04-11T00:49:03.391Z,100.00
2023-04-11T00:52:06.422Z,100.00
2023-04-11T00:55:09.945Z,100.00
2023-04-11T00:58:12.896Z,100.00
2023-04-11T01:01:16.804Z,100.00
2023-04-11T01:04:18.421Z,100.00
2023-04-11T01:07:21.741Z,100.00
2023-04-11T01:10:28.735Z,100.00
2023-04-11T01:13:32.479Z,100.00
2023-04-11T01:16:34.550Z,100.00
2023-04-11T01:19:36.374Z,100.00
2023-04-11T01:22:40.043Z,100.00
2023-04-11T01:25:41.731Z,100.00
2023-04-11T01:28:45.558Z,100.00
2023-04-11T01:31:49.974Z,100.00
2023-04-11T01:34:55.675Z,100.00
2023-04-11T01:37:57.524Z,100.00
2023-04-11T01:41:00.063Z,100.00
2023-04-11T01:44:05.661Z,100.00
2023-04-11T01:47:07.807Z,100.00
2023-04-11T01:50:09.548Z,100.00
2023-04-11T01:53:11.202Z,100.00
2023-04-11T01:56:14.464Z,100.00
2023-04-11T01:59:16.325Z,100.00
2023-04-11T02:02:19.871Z,100.00
2023-04-11T02:05:22.109Z,100.00
2023-04-11T02:08:23.879Z,100.00
2023-04-11T02:11:25.644Z,100.00
2023-04-11T02:14:29.774Z,100.00
2023-04-11T02:17:32.363Z,100.00
2023-04-11T02:20:33.782Z,100.00
2023-04-11T02:23:35.445Z,100.00
2023-04-11T02:26:37.247Z,100.00
2023-04-11T02:29:38.906Z,100.00
2023-04-11T02:32:40.821Z,100.00
2023-04-11T02:35:42.796Z,100.00
2023-04-11T02:38:44.500Z,100.00
2023-04-11T02:41:46.180Z,100.00
2023-04-11T02:44:47.849Z,100.00
2023-04-11T02:47:49.425Z,100.00
2023-04-11T02:50:52.018Z,100.00
2023-04-11T02:53:54.318Z,100.00
2023-04-11T02:56:56.578Z,100.00
2023-04-11T02:59:58.381Z,100.00
2023-04-11T03:03:10.478Z,100.00
2023-04-11T03:06:16.269Z,100.00
2023-04-11T03:09:21.055Z,100.00
2023-04-11T03:12:22.921Z,100.00
2023-04-11T03:15:32.228Z,100.00
2023-04-11T03:18:38.771Z,100.00
2023-04-11T03:21:44.035Z,100.00
2023-04-11T03:24:45.870Z,100.00
2023-04-11T03:27:47.638Z,100.00
2023-04-11T03:30:50.466Z,100.00
2023-04-11T03:33:56.895Z,100.00
2023-04-11T03:36:58.601Z,100.00
2023-04-11T03:40:00.916Z,100.00
2023-04-11T03:43:04.836Z,100.00
2023-04-11T03:46:09.725Z,100.00
2023-04-11T03:49:15.785Z,100.00
2023-04-11T03:52:19.912Z,100.00
2023-04-11T03:55:23.717Z,100.00
2023-04-11T03:58:26.531Z,100.00
2023-04-11T04:01:28.128Z,100.00
2023-04-11T04:04:36.508Z,100.00
2023-04-11T04:07:52.940Z,100.00
2023-04-11T04:11:12.346Z,100.00
2023-04-11T04:14:14.152Z,100.00
2023-04-11T04:17:16.459Z,100.00
2023-04-11T04:20:18.880Z,100.00
2023-04-11T04:23:27.059Z,100.00
2023-04-11T04:26:49.958Z,100.00
2023-04-11T04:30:22.004Z,100.00
2023-04-11T04:33:43.021Z,100.00
2023-04-11T04:36:56.386Z,100.00
2023-04-11T04:40:13.239Z,100.00
2023-04-11T04:43:24.329Z,100.00
2023-04-11T04:46:36.584Z,100.00
2023-04-11T04:49:40.210Z,100.00
2023-04-11T04:52:41.889Z,100.00
2023-04-11T04:55:43.590Z,100.00
2023-04-11T04:58:47.098Z,100.00
2023-04-11T05:01:51.586Z,100.00
2023-04-11T05:05:04.506Z,100.00
2023-04-11T05:08:08.125Z,100.00
2023-04-11T05:11:12.284Z,100.00
2023-04-11T05:14:14.209Z,100.00
2023-04-11T05:17:16.249Z,100.00
2023-04-11T05:20:17.983Z,100.00
2023-04-11T05:23:21.945Z,100.00
2023-04-11T05:26:26.462Z,100.00
2023-04-11T05:29:29.914Z,100.00
2023-04-11T05:32:33.971Z,100.00
2023-04-11T05:35:36.405Z,100.00
2023-04-11T05:38:37.932Z,100.00
2023-04-11T05:41:39.770Z,100.00
2023-04-11T05:44:42.025Z,100.00
2023-04-11T05:47:43.759Z,100.00
2023-04-11T05:50:46.459Z,100.00
2023-04-11T05:53:47.887Z,100.00
2023-04-11T05:56:49.558Z,100.00
2023-04-11T05:59:52.936Z,100.00
2023-04-11T06:02:54.920Z,100.00
2023-04-11T06:05:57.037Z,100.00
2023-04-11T06:08:58.425Z,100.00
2023-04-11T06:12:00.084Z,100.00
2023-04-11T06:15:02.525Z,100.00
2023-04-11T06:18:04.007Z,100.00
2023-04-11T06:21:06.219Z,100.00
2023-04-11T06:24:11.042Z,100.00
2023-04-11T06:27:12.625Z,100.00
2023-04-11T06:30:14.893Z,100.00
2023-04-11T06:33:16.578Z,100.00
2023-04-11T06:36:18.323Z,100.00
2023-04-11T06:39:21.868Z,100.00
2023-04-11T06:42:24.032Z,100.00
2023-04-11T06:45:27.019Z,100.00
2023-04-11T06:48:28.700Z,100.00
2023-04-11T06:51:30.431Z,100.00
2023-04-11T06:54:32.296Z,100.00
2023-04-11T06:57:34.496Z,100.00
2023-04-11T07:00:36.054Z,100.00
2023-04-11T07:03:38.130Z,100.00
2023-04-11T07:06:39.840Z,100.00
2023-04-11T07:09:41.515Z,100.00
2023-04-11T07:12:43.473Z,100.00
2023-04-11T07:15:44.947Z,100.00
2023-04-11T07:18:46.643Z,100.00
2023-04-11T07:21:48.759Z,100.00
2023-04-11T07:24:55.096Z,100.00
2023-04-11T07:27:57.079Z,100.00
2023-04-11T07:30:59.132Z,100.00
2023-04-11T07:34:01.132Z,100.00
2023-04-11T07:37:03.502Z,100.00
2023-04-11T07:40:10.723Z,100.00
2023-04-11T07:43:12.140Z,100.00
2023-04-11T07:46:15.031Z,100.00
2023-04-11T07:49:16.930Z,100.00
2023-04-11T07:52:18.674Z,100.00
2023-04-11T07:55:20.326Z,99.93
2023-04-11T07:58:22.229Z,97.77
2023-04-11T08:01:25.473Z,92.06
2023-04-11T08:04:31.710Z,91.42
2023-04-11T08:07:33.219Z,89.56
2023-04-11T08:10:34.946Z,94.46
2023-04-11T08:13:36.661Z,99.02
2023-04-11T08:16:38.256Z,94.97
2023-04-11T08:19:40.191Z,98.54
2023-04-11T08:22:44.563Z,93.47
2023-04-11T08:25:46.632Z,92.82
2023-04-11T08:28:48.364Z,84.55
2023-04-11T08:31:50.145Z,83.08
2023-04-11T08:34:51.826Z,83.64
2023-04-11T08:37:54.686Z,74.83
2023-04-11T08:40:56.590Z,81.44
2023-04-11T08:43:58.910Z,78.08
2023-04-11T08:47:00.721Z,70.07
2023-04-11T08:50:03.662Z,72.91
2023-04-11T08:53:08.162Z,75.34
2023-04-11T08:56:15.438Z,74.08
2023-04-11T08:59:17.524Z,68.69
2023-04-11T09:02:19.603Z,65.66
2023-04-11T09:05:41.375Z,66.53
2023-04-11T09:08:43.017Z,67.13
2023-04-11T09:11:51.988Z,66.38
2023-04-11T09:14:54.088Z,67.14
2023-04-11T09:17:59.790Z,65.28
2023-04-11T09:21:08.288Z,65.56
2023-04-11T09:24:17.008Z,62.09
2023-04-11T09:27:19.625Z,61.17
2023-04-11T09:30:26.654Z,62.67
2023-04-11T09:33:31.589Z,61.93
2023-04-11T09:36:33.723Z,59.95
2023-04-11T09:39:35.767Z,58.70
2023-04-11T09:42:37.511Z,57.68
2023-04-11T09:45:51.708Z,59.22
2023-04-11T09:48:56.626Z,58.18
2023-04-11T09:51:59.376Z,58.00
2023-04-11T09:55:04.618Z,57.61
2023-04-11T09:58:09.878Z,56.66
2023-04-11T10:01:11.496Z,59.74
2023-04-11T10:04:14.330Z,62.93
2023-04-11T10:07:19.509Z,63.86
2023-04-11T10:10:23.226Z,62.87
2023-04-11T10:13:47.466Z,62.51
2023-04-11T10:17:21.904Z,63.72
2023-04-11T10:20:44.721Z,66.37
2023-04-11T10:24:15.885Z,67.81
2023-04-11T10:27:45.574Z,63.60
2023-04-11T10:31:04.224Z,61.72
2023-04-11T10:34:14.318Z,61.96
2023-04-11T10:37:31.090Z,59.94
2023-04-11T10:40:32.546Z,59.01
2023-04-11T10:43:37.937Z,58.46
2023-04-11T10:46:45.406Z,59.50
2023-04-11T10:49:47.419Z,60.12
2023-04-11T10:52:49.556Z,59.88
2023-04-11T10:55:51.281Z,60.56
2023-04-11T10:58:53.363Z,58.13
2023-04-11T11:01:55.785Z,56.75
2023-04-11T11:04:58.454Z,60.57
2023-04-11T11:07:59.852Z,59.85
2023-04-11T11:11:08.965Z,61.36
2023-04-11T11:14:10.837Z,60.50
2023-04-11T11:17:14.220Z,60.71
2023-04-11T11:20:17.201Z,61.51
2023-04-11T11:23:18.845Z,59.53
2023-04-11T11:26:20.586Z,58.76
2023-04-11T11:29:31.328Z,58.04
2023-04-11T11:32:33.274Z,57.89
2023-04-11T11:35:34.908Z,56.02
2023-04-11T11:38:36.741Z,57.48
2023-04-11T11:41:40.243Z,57.24
2023-04-11T11:44:41.961Z,55.93
2023-04-11T11:47:45.290Z,57.72
2023-04-11T11:50:46.823Z,56.79
2023-04-11T11:54:05.606Z,55.99
2023-04-11T11:57:07.070Z,55.62
2023-04-11T12:00:10.427Z,54.59
2023-04-11T12:03:12.593Z,54.75
2023-04-11T12:06:15.998Z,53.12
2023-04-11T12:09:17.680Z,55.03
2023-04-11T12:12:19.327Z,54.22
2023-04-11T12:15:22.953Z,54.82
2023-04-11T12:18:26.502Z,54.78
2023-04-11T12:21:28.296Z,54.79
2023-04-11T12:24:30.022Z,52.78
2023-04-11T12:27:34.768Z,53.97
2023-04-11T12:30:37.597Z,53.34
2023-04-11T12:33:39.393Z,49.72
2023-04-11T12:36:41.434Z,49.02
2023-04-11T12:39:43.183Z,48.04
2023-04-11T12:42:56.339Z,47.45
2023-04-11T12:45:58.774Z,47.10
2023-04-11T12:49:00.642Z,47.52
2023-04-11T12:52:02.829Z,48.99
2023-04-11T12:55:04.999Z,49.72
2023-04-11T12:58:09.278Z,47.47
2023-04-11T13:01:11.243Z,46.45
2023-04-11T13:04:13.475Z,46.30
2023-04-11T13:07:15.020Z,45.65
2023-04-11T13:10:16.772Z,45.19
2023-04-11T13:13:19.015Z,45.16
2023-04-11T13:16:21.147Z,46.46
2023-04-11T13:19:23.004Z,47.75
2023-04-11T13:22:24.769Z,48.43
2023-04-11T13:25:26.854Z,45.66
2023-04-11T13:28:28.245Z,46.99
2023-04-11T13:31:29.999Z,46.40
2023-04-11T13:34:31.935Z,46.60
2023-04-11T13:37:33.671Z,46.24
2023-04-11T13:40:36.152Z,45.67
2023-04-11T13:43:37.524Z,45.24
2023-04-11T13:46:38.943Z,44.30
2023-04-11T13:49:40.770Z,43.99
2023-04-11T13:52:42.416Z,44.23
2023-04-11T13:55:49.347Z,43.68
2023-04-11T13:58:51.535Z,40.13
2023-04-11T14:01:53.729Z,39.24
2023-04-11T14:04:56.194Z,40.25
2023-04-11T14:07:57.992Z,41.91
2023-04-11T14:10:59.671Z,40.22
2023-04-11T14:14:01.459Z,40.40
2023-04-11T14:17:03.449Z,40.07
2023-04-11T14:20:06.938Z,39.54
2023-04-11T14:23:10.302Z,36.80
2023-04-11T14:26:11.985Z,37.38
2023-04-11T14:29:13.755Z,37.74
2023-04-11T14:32:15.546Z,38.64
2023-04-11T14:35:17.103Z,38.80
2023-04-11T14:38:18.737Z,39.06
2023-04-11T14:41:21.687Z,38.29
2023-04-11T14:44:23.890Z,36.94
2023-04-11T14:47:25.349Z,37.21
2023-04-11T14:50:28.538Z,36.42
2023-04-11T14:53:31.683Z,36.15
2023-04-11T14:56:33.061Z,36.44
2023-04-11T14:59:35.208Z,36.60
2023-04-11T15:02:37.153Z,38.02
2023-04-11T15:05:39.065Z,38.69
2023-04-11T15:08:41.076Z,39.39
2023-04-11T15:11:42.890Z,39.23
2023-04-11T15:14:44.899Z,39.21
2023-04-11T15:17:48.460Z,39.34
2023-04-11T15:20:50.423Z,37.04
2023-04-11T15:23:52.344Z,36.28
2023-04-11T15:26:54.217Z,36.98
2023-04-11T15:29:59.423Z,35.94
2023-04-11T15:33:01.350Z,35.83
2023-04-11T15:36:03.787Z,36.04
2023-04-11T15:39:06.238Z,36.47
2023-04-11T15:42:08.611Z,36.11
2023-04-11T15:45:10.488Z,36.72
2023-04-11T15:48:15.344Z,35.84
2023-04-11T15:51:17.280Z,37.19
2023-04-11T15:54:19.558Z,37.88
2023-04-11T15:57:20.953Z,37.69
2023-04-11T16:00:22.858Z,36.27
2023-04-11T16:03:31.322Z,36.77
2023-04-11T16:06:33.386Z,37.60
2023-04-11T16:09:35.755Z,37.30
2023-04-11T16:12:37.970Z,36.66
2023-04-11T16:15:39.349Z,37.42
2023-04-11T16:18:43.790Z,37.10
2023-04-11T16:21:45.735Z,37.45
2023-04-11T16:24:47.641Z,37.58
2023-04-11T16:27:51.477Z,37.79
2023-04-11T16:30:53.303Z,37.61
2023-04-11T16:33:55.594Z,38.39
2023-04-11T16:36:57.180Z,38.71
2023-04-11T16:39:59.028Z,39.08
2023-04-11T16:43:00.924Z,38.97
2023-04-11T16:46:02.832Z,39.32
2023-04-11T16:49:05.288Z,39.34
2023-04-11T16:52:06.911Z,38.99
2023-04-11T16:55:09.118Z,39.09
2023-04-11T16:58:11.657Z,39.67
2023-04-11T17:01:13.582Z,39.94
2023-04-11T17:04:16.411Z,40.21
2023-04-11T17:07:18.441Z,40.61
2023-04-11T17:10:21.604Z,40.42
2023-04-11T17:13:23.582Z,40.49
2023-04-11T17:16:25.643Z,40.31
2023-04-11T17:19:28.363Z,41.13
2023-04-11T17:22:30.222Z,41.26
2023-04-11T17:25:32.403Z,41.81
2023-04-11T17:28:35.804Z,42.03
2023-04-11T17:31:37.659Z,42.53
2023-04-11T17:34:39.041Z,42.55
2023-04-11T17:37:40.568Z,43.54
2023-04-11T17:40:42.589Z,43.83
2023-04-11T17:43:44.580Z,44.35
2023-04-11T17:46:46.563Z,44.43
2023-04-11T17:49:48.466Z,44.35
2023-04-11T17:52:51.134Z,44.94
2023-04-11T17:55:53.221Z,45.22
2023-04-11T17:58:56.079Z,45.72
2023-04-11T18:01:57.979Z,45.03
2023-04-11T18:05:03.751Z,45.57
2023-04-11T18:08:07.788Z,45.00
2023-04-11T18:11:09.584Z,44.94
2023-04-11T18:14:11.535Z,45.28
2023-04-11T18:17:13.347Z,45.83
2023-04-11T18:20:16.088Z,46.28
2023-04-11T18:23:17.951Z,46.26
2023-04-11T18:26:20.096Z,46.91
2023-04-11T18:29:22.410Z,47.41
2023-04-11T18:32:26.854Z,47.83
2023-04-11T18:35:30.131Z,48.04
2023-04-11T18:38:31.971Z,48.86
2023-04-11T18:41:33.855Z,48.77
2023-04-11T18:44:36.574Z,49.60
2023-04-11T18:47:39.473Z,49.21
2023-04-11T18:50:42.861Z,50.06
2023-04-11T18:53:45.054Z,50.01
2023-04-11T18:56:48.967Z,49.75
2023-04-11T18:59:54.154Z,49.92
2023-04-11T19:02:58.157Z,50.40
2023-04-11T19:06:01.191Z,50.54
2023-04-11T19:09:02.667Z,51.28
2023-04-11T19:12:04.822Z,50.92
2023-04-11T19:15:07.992Z,51.09
2023-04-11T19:18:10.370Z,51.41
2023-04-11T19:21:12.209Z,51.66
2023-04-11T19:24:14.398Z,52.27
2023-04-11T19:27:18.335Z,52.48
2023-04-11T19:30:20.191Z,52.46
2023-04-11T19:33:24.272Z,53.14
2023-04-11T19:36:26.590Z,53.49
2023-04-11T19:39:35.365Z,53.37
2023-04-11T19:42:39.008Z,53.75
2023-04-11T19:45:42.819Z,53.69
2023-04-11T19:48:45.638Z,54.85
2023-04-11T19:51:47.122Z,55.33
2023-04-11T19:54:49.025Z,55.12
2023-04-11T19:57:50.413Z,55.99
2023-04-11T20:00:52.921Z,55.92
2023-04-11T20:03:56.938Z,55.57
2023-04-11T20:07:00.834Z,55.29
2023-04-11T20:10:03.678Z,55.51
2023-04-11T20:13:05.325Z,55.72
2023-04-11T20:16:08.385Z,55.84
2023-04-11T20:19:09.849Z,55.45
2023-04-11T20:22:14.949Z,55.53
2023-04-11T20:25:16.378Z,56.01
2023-04-11T20:28:18.708Z,54.80
2023-04-11T20:31:20.580Z,54.97
2023-04-11T20:34:22.776Z,55.24
2023-04-11T20:37:25.240Z,55.28
2023-04-11T20:40:26.653Z,54.75
2023-04-11T20:43:28.433Z,54.69
2023-04-11T20:46:30.346Z,55.09
2023-04-11T20:49:32.263Z,54.66
2023-04-11T20:52:33.634Z,54.53
2023-04-11T20:55:35.474Z,56.00
2023-04-11T20:58:37.215Z,55.48
2023-04-11T21:01:39.072Z,56.02
2023-04-11T21:04:41.226Z,56.22
2023-04-11T21:07:43.489Z,57.23
2023-04-11T21:10:45.402Z,56.95
2023-04-11T21:13:49.094Z,56.63
2023-04-11T21:16:50.961Z,57.05
2023-04-11T21:19:52.808Z,57.57
2023-04-11T21:22:55.214Z,57.49
2023-04-11T21:25:57.205Z,58.84
2023-04-11T21:28:59.848Z,58.80
2023-04-11T21:32:01.839Z,58.72
2023-04-11T21:35:07.159Z,59.28
2023-04-11T21:38:08.572Z,58.83
2023-04-11T21:41:10.343Z,59.04
2023-04-11T21:44:12.170Z,59.35
2023-04-11T21:47:13.981Z,59.71
2023-04-11T21:50:17.226Z,60.56
2023-04-11T21:53:19.685Z,60.17
2023-04-11T21:56:21.461Z,60.25
2023-04-11T21:59:23.231Z,60.60
2023-04-11T22:02:26.327Z,60.60
2023-04-11T22:05:28.431Z,61.18
2023-04-11T22:08:30.527Z,60.81
2023-04-11T22:11:32.445Z,60.59
2023-04-11T22:14:33.852Z,61.09
2023-04-11T22:17:37.228Z,61.32
2023-04-11T22:20:43.392Z,61.75
2023-04-11T22:23:54.468Z,61.45
2023-04-11T22:26:58.161Z,61.47
2023-04-11T22:30:02.064Z,61.49
2023-04-11T22:33:04.190Z,61.41
2023-04-11T22:36:09.355Z,62.04
2023-04-11T22:39:11.584Z,61.51
2023-04-11T22:42:12.962Z,61.90
2023-04-11T22:45:14.718Z,61.95
2023-04-11T22:48:16.875Z,61.71
2023-04-11T22:51:19.006Z,61.64
2023-04-11T22:54:20.786Z,61.33
2023-04-11T22:57:23.013Z,61.55
2023-04-11T23:00:24.463Z,61.14
2023-04-11T23:03:27.778Z,61.16
2023-04-11T23:06:29.555Z,60.32
2023-04-11T23:09:31.336Z,61.37
2023-04-11T23:12:33.089Z,60.67
2023-04-11T23:15:56.753Z,60.33
2023-04-11T23:18:59.442Z,61.10
2023-04-11T23:22:00.822Z,60.64
2023-04-11T23:25:02.779Z,60.79
2023-04-11T23:28:04.573Z,60.67
2023-04-11T23:31:06.603Z,60.92
2023-04-11T23:34:11.076Z,60.90
2023-04-11T23:37:13.581Z,61.93
2023-04-11T23:40:15.638Z,62.09
2023-04-11T23:43:18.302Z,64.02
2023-04-11T23:46:20.257Z,66.71
2023-04-11T23:49:22.446Z,67.04
2023-04-11T23:52:23.857Z,68.55
2023-04-11T23:55:26.574Z,67.90
2023-04-11T23:58:28.339Z,69.45
